Time;durP1;ratioP1;P1;durP2;ratioP2;P2;SDS_P1;SDS_P2;PMS_P1;PMS_P2;Temp;Humidity;BMP_temperature;BMP_pressure;BME280_temperature;BME280_humidity;BME280_pressure;Samples;Min_cycle;Max_cycle;Signal;HPM_P1;HPM_P2
2024/03/28 10:40:50;;;;;;;;;16.33;13.00;;;;;24.49;38.61;100007.86;239052;1194;58088;-62
2024/03/28 10:45:59;;;;;;;;;12.33;12.33;;;;;25.42;36.25;100010.95;240422;1189;74274;-63
2024/03/28 10:51:18;;;;;;;;;17.00;14.50;;;;;26.12;34.77;100001.97;239437;1187;73585;-64
2024/03/28 11:38:41;;;;;;;;;18.00;15.33;;;;;26.00;35.05;99970.85;236198;1195;58535;-66
2024/03/28 11:43:45;;;;;;;;;18.00;16.00;;;;;26.91;33.93;99953.21;244229;1183;74465;-66
2024/03/28 11:48:55;;;;;;;;;13.50;13.50;;;;;27.64;31.93;99943.34;244428;1183;72747;-66
2024/03/28 11:53:58;;;;;;;;;22.00;14.75;;;;;27.88;31.73;99941.49;244455;1182;73907;-67
2024/03/28 11:59:18;;;;;;;;;25.25;19.00;;;;;28.21;31.39;99931.57;244449;1184;73367;-67
2024/03/28 12:04:25;;;;;;;;;18.67;15.33;;;;;28.48;30.84;99936.10;244263;1187;72993;-68
2024/03/28 12:09:28;;;;;;;;;22.67;15.67;;;;;28.57;30.67;99939.44;244434;1187;73359;-67
2024/03/28 12:14:31;;;;;;;;;24.00;16.00;;;;;28.71;30.31;99946.43;244057;1187;56692;-67
2024/03/28 12:19:34;;;;;;;;;18.25;12.75;;;;;28.74;30.06;99960.18;244381;1187;57020;-67
2024/03/28 12:24:37;;;;;;;;;25.00;16.00;;;;;28.72;30.11;99968.17;244099;1184;57052;-67
2024/03/28 12:29:40;;;;;;;;;17.50;13.25;;;;;28.69;30.12;99968.34;244819;1187;73688;-67
2024/03/28 12:34:50;;;;;;;;;15.25;12.25;;;;;28.67;30.00;99978.36;245121;1180;57511;-67
2024/03/28 12:39:53;;;;;;;;;21.00;16.50;;;;;28.61;30.07;99970.73;244847;1180;74705;-67
2024/03/28 12:44:57;;;;;;;;;16.00;12.50;;;;;28.62;29.99;99965.93;245280;1182;57471;-67
2024/03/28 12:50:01;;;;;;;;;16.75;13.75;;;;;28.60;30.03;99970.17;245271;1182;73408;-67
2024/03/28 12:55:04;;;;;;;;;15.33;14.00;;;;;28.72;29.70;99959.69;245208;1183;57611;-67
2024/03/28 13:00:08;;;;;;;;;15.00;13.33;;;;;28.73;29.57;99964.05;245338;1183;57870;-67
2024/03/28 13:05:13;;;;;;;;;14.25;13.50;;;;;28.73;29.47;99989.02;245304;1183;74254;-67
2024/03/28 13:10:17;;;;;;;;;18.67;13.67;;;;;28.74;29.27;99988.27;245299;1183;74650;-67
2024/03/28 13:15:20;;;;;;;;;19.25;13.75;;;;;28.75;29.25;99990.33;245298;1183;73957;-67
2024/03/28 13:20:23;;;;;;;;;17.00;13.33;;;;;28.78;29.19;99988.73;245335;1183;57595;-67
2024/03/28 13:25:28;;;;;;;;;19.67;13.00;;;;;28.84;28.94;99983.05;245416;1179;57483;-67
2024/03/28 13:30:33;;;;;;;;;14.75;12.25;;;;;28.87;28.75;99955.45;245515;1183;72899;-67
2024/03/28 13:35:36;;;;;;;;;14.75;12.00;;;;;28.92;28.74;99952.58;245354;1183;57464;-67
2024/03/28 13:40:39;;;;;;;;;12.67;12.33;;;;;28.93;28.71;99961.60;245325;1181;57485;-67
2024/03/28 13:45:45;;;;;;;;;14.75;14.25;;;;;28.92;28.75;99951.64;245302;1183;73720;-67
2024/03/28 13:50:48;;;;;;;;;22.00;12.75;;;;;28.93;28.44;99962.21;245285;1183;73235;-67
2024/03/28 13:55:51;;;;;;;;;17.25;11.75;;;;;28.92;28.43;99968.77;245302;1184;74138;-67
2024/03/28 14:00:54;;;;;;;;;12.67;12.00;;;;;28.83;28.54;99968.79;245311;1184;57650;-67
2024/03/28 14:06:04;;;;;;;;;15.00;13.67;;;;;28.78;28.50;99976.67;245279;1184;57533;-67
2024/03/28 14:11:07;;;;;;;;;14.00;12.00;;;;;28.80;28.60;99987.13;245276;1183;73427;-67
2024/03/28 14:16:10;;;;;;;;;13.33;12.33;;;;;28.80;28.62;99998.63;245315;1183;57456;-67
2024/03/28 14:21:13;;;;;;;;;17.25;13.25;;;;;28.72;28.57;100003.52;245292;1180;73647;-67
2024/03/28 14:26:16;;;;;;;;;19.67;12.33;;;;;28.56;28.68;100012.85;246107;1183;57387;-67
2024/03/28 14:31:19;;;;;;;;;11.67;9.67;;;;;28.36;29.07;100013.04;246109;1181;57707;-67
2024/03/28 14:36:22;;;;;;;;;15.00;12.00;;;;;28.23;29.04;100011.86;245809;1183;73434;-67
2024/03/28 14:41:26;;;;;;;;;14.00;11.00;;;;;28.14;29.25;100014.83;246112;1181;57807;-67
2024/03/28 14:46:29;;;;;;;;;11.33;9.67;;;;;28.07;29.31;100018.17;245789;1181;57633;-67
2024/03/28 14:51:32;;;;;;;;;11.00;10.75;;;;;27.96;29.37;100012.30;246089;1177;73474;-67
2024/03/28 14:56:35;;;;;;;;;18.00;12.00;;;;;27.94;29.40;100010.38;246096;1182;57521;-67
2024/03/28 15:01:38;;;;;;;;;13.00;13.00;;;;;27.94;29.39;100016.64;246102;1182;57763;-68
2024/03/28 15:06:41;;;;;;;;;12.00;11.00;;;;;27.92;29.33;100020.77;246113;1182;57464;-67
2024/03/28 15:11:44;;;;;;;;;12.33;10.33;;;;;27.91;29.24;100021.86;245784;1182;57445;-67
2024/03/28 15:16:47;;;;;;;;;12.00;11.00;;;;;27.85;29.42;100017.35;246109;1184;57490;-67
2024/03/28 15:21:50;;;;;;;;;17.00;11.50;;;;;27.75;29.43;100021.64;246091;1182;57547;-67
2024/03/28 15:26:54;;;;;;;;;12.67;12.67;;;;;27.64;29.49;100029.44;246081;1182;57464;-67
2024/03/28 15:31:57;;;;;;;;;21.67;13.67;;;;;27.54;29.57;100037.59;246107;1182;57555;-67
2024/03/28 15:37:13;;;;;;;;;10.67;9.67;;;;;27.46;29.63;100046.18;245813;1178;73982;-67
2024/03/28 15:42:16;;;;;;;;;10.75;10.75;;;;;27.37;29.91;100052.86;246121;1182;57528;-67
2024/03/28 15:47:19;;;;;;;;;10.33;9.00;;;;;27.29;29.76;100058.77;246106;1177;57505;-67
2024/03/28 15:52:22;;;;;;;;;12.33;12.33;;;;;27.22;29.85;100072.30;246099;1182;57541;-67
2024/03/28 15:57:27;;;;;;;;;12.33;11.33;;;;;27.15;29.81;100071.22;245800;1183;57416;-67
2024/03/28 16:02:31;;;;;;;;;11.00;10.00;;;;;27.10;30.01;100082.34;246094;1182;72854;-67
2024/03/28 16:07:33;;;;;;;;;12.75;10.75;;;;;27.05;29.95;100087.94;246101;1183;72920;-67
2024/03/28 16:12:36;;;;;;;;;10.25;9.75;;;;;27.00;29.93;100092.91;246124;1181;57486;-67
2024/03/28 16:17:39;;;;;;;;;10.00;10.00;;;;;26.95;29.96;100105.23;246112;1177;57553;-67
2024/03/28 16:22:44;;;;;;;;;12.00;10.67;;;;;26.92;30.06;100119.69;246117;1182;57560;-67
2024/03/28 16:27:48;;;;;;;;;9.50;9.00;;;;;26.90;30.05;100134.83;245781;1181;73517;-67
2024/03/28 16:32:53;;;;;;;;;9.67;9.67;;;;;26.85;30.07;100142.88;246125;1183;57510;-67
2024/03/28 16:37:56;;;;;;;;;9.50;9.00;;;;;26.82;30.16;100144.70;246079;1183;72343;-67
2024/03/28 16:42:59;;;;;;;;;12.00;10.00;;;;;26.80;30.08;100155.71;246083;1177;57494;-67
2024/03/28 16:48:02;;;;;;;;;12.67;11.00;;;;;26.76;30.35;100166.07;246106;1182;57442;-67
2024/03/28 16:53:05;;;;;;;;;9.67;9.67;;;;;26.73;30.38;100171.29;245800;1182;57687;-67
2024/03/28 16:58:07;;;;;;;;;9.00;9.00;;;;;26.70;30.33;100182.27;246137;1177;57432;-67
2024/03/28 17:03:17;;;;;;;;;14.00;12.00;;;;;26.67;30.25;100191.73;246123;1182;57499;-67
2024/03/28 17:08:20;;;;;;;;;15.00;13.00;;;;;26.65;30.45;100197.99;245851;1180;73702;-67
2024/03/28 17:13:26;;;;;;;;;12.67;12.67;;;;;26.62;30.40;100203.96;245766;1180;57422;-67
2024/03/28 17:18:29;;;;;;;;;12.33;11.33;;;;;26.60;30.28;100220.23;245782;1183;72901;-67
2024/03/28 17:23:32;;;;;;;;;11.00;10.00;;;;;26.58;30.33;100223.66;245788;1183;71898;-67
2024/03/28 17:28:35;;;;;;;;;15.50;10.25;;;;;26.56;30.37;100228.48;245784;1184;74102;-67
2024/03/28 17:33:38;;;;;;;;;10.00;10.00;;;;;26.53;30.46;100227.35;246117;1182;57578;-67
2024/03/28 17:38:44;;;;;;;;;10.67;8.00;;;;;26.51;30.58;100235.74;245360;1183;57405;-67
2024/03/28 17:43:48;;;;;;;;;13.00;12.00;;;;;26.50;30.52;100245.09;242869;1184;73520;-65
2024/03/28 17:48:51;;;;;;;;;12.00;11.00;;;;;26.48;30.51;100243.42;242887;1179;73302;-65
2024/03/28 17:53:54;;;;;;;;;10.67;10.67;;;;;26.47;30.52;100258.23;243701;1182;57868;-67
2024/03/28 17:58:59;;;;;;;;;9.33;9.00;;;;;26.45;30.52;100264.57;243519;1183;72748;-65
2024/03/28 18:04:02;;;;;;;;;8.50;8.50;;;;;26.42;30.38;100276.33;243246;1183;57940;-65
2024/03/28 18:09:05;;;;;;;;;9.00;9.00;;;;;26.41;30.41;100285.73;241901;1182;57875;-65
2024/03/28 18:14:08;;;;;;;;;9.33;9.33;;;;;26.40;30.52;100294.48;242670;1182;57599;-65
2024/03/28 18:19:11;;;;;;;;;11.00;9.00;;;;;26.38;30.47;100295.17;242877;1182;57631;-67
2024/03/28 18:24:46;;;;;;;;;11.50;11.50;;;;;26.37;30.50;100294.33;244065;1180;57748;-65
2024/03/28 18:29:53;;;;;;;;;9.00;9.00;;;;;26.35;30.62;100305.83;244277;1191;73086;-65
2024/03/28 18:34:57;;;;;;;;;10.33;10.33;;;;;26.34;30.59;100308.81;243656;1178;73352;-65
2024/03/28 18:40:18;;;;;;;;;11.00;9.00;;;;;26.32;30.69;100311.11;244385;1178;57737;-66
2024/03/28 18:45:56;;;;;;;;;11.50;11.50;;;;;26.31;30.61;100314.33;244680;1181;73197;-65
2024/03/28 18:51:00;;;;;;;;;11.00;9.67;;;;;26.30;30.68;100329.27;244708;1179;72951;-66
2024/03/28 18:56:03;;;;;;;;;12.67;11.00;;;;;26.28;30.58;100329.15;244353;1182;74316;-65
2024/03/28 19:01:09;;;;;;;;;10.33;9.00;;;;;26.27;30.75;100332.71;244222;1181;72882;-66
2024/03/28 19:06:45;;;;;;;;;10.00;10.00;;;;;26.25;30.73;100348.80;244723;1182;72917;-66
2024/03/28 19:11:57;;;;;;;;;11.00;10.00;;;;;26.25;30.64;100349.45;244362;1177;73589;-65
2024/03/28 19:17:33;;;;;;;;;12.00;10.00;;;;;26.23;30.74;100349.38;245097;1183;72931;-65
2024/03/28 19:22:58;;;;;;;;;10.50;10.50;;;;;26.22;30.78;100355.20;244700;1182;73357;-65
2024/03/28 19:28:33;;;;;;;;;12.67;8.00;;;;;26.21;30.76;100368.04;244710;1183;71907;-65
2024/03/28 19:33:37;;;;;;;;;11.00;10.00;;;;;26.20;30.71;100373.52;244614;1181;73413;-65
2024/03/28 19:39:13;;;;;;;;;10.00;9.67;;;;;26.19;30.66;100382.05;244033;1183;74377;-65
2024/03/28 19:44:48;;;;;;;;;11.00;10.00;;;;;26.17;30.76;100394.42;244142;1183;73502;-65
2024/03/28 19:50:09;;;;;;;;;12.00;10.50;;;;;26.16;30.74;100398.08;243656;1182;74175;-65
2024/03/28 19:55:44;;;;;;;;;12.67;11.33;;;;;26.14;30.78;100402.15;243802;1182;73353;-65
2024/03/28 20:01:51;;;;;;;;;10.00;10.00;;;;;26.14;30.69;100406.31;243328;1183;72525;-65
2024/03/28 20:06:53;;;;;;;;;9.33;9.33;;;;;26.12;30.74;100413.27;243459;1182;72941;-65
2024/03/28 20:11:56;;;;;;;;;14.33;10.67;;;;;26.11;30.93;100410.90;243651;1179;58369;-65
2024/03/28 20:17:05;;;;;;;;;11.00;9.00;;;;;26.10;30.83;100414.38;243514;1178;58453;-65
2024/03/28 20:22:34;;;;;;;;;9.50;9.50;;;;;26.09;30.79;100410.20;243955;1184;74566;-65
2024/03/28 20:28:09;;;;;;;;;9.33;9.33;;;;;26.07;30.79;100410.13;243556;1179;73251;-66
2024/03/28 20:33:36;;;;;;;;;10.00;10.00;;;;;26.07;30.74;100416.58;243886;1180;72845;-65
2024/03/28 20:39:11;;;;;;;;;8.00;8.00;;;;;26.05;30.83;100427.41;244707;1180;73360;-65
2024/03/28 20:44:32;;;;;;;;;7.50;7.50;;;;;26.04;30.87;100430.13;244615;1180;72831;-65
2024/03/28 20:49:43;;;;;;;;;14.67;10.67;;;;;26.03;30.87;100441.30;244722;1180;73509;-65
2024/03/28 20:55:23;;;;;;;;;9.50;9.00;;;;;26.03;30.74;100435.88;244448;1180;72686;-65
2024/03/28 21:01:02;;;;;;;;;9.00;9.00;;;;;26.02;30.81;100448.58;244893;1177;73595;-65
2024/03/28 21:11:43;;;;;;;;;10.50;10.00;;;;;26.00;30.86;100453.63;244164;1180;73689;-65
2024/03/28 21:17:05;;;;;;;;;12.50;10.00;;;;;26.00;30.89;100463.93;244411;1180;73841;-65
2024/03/28 21:22:40;;;;;;;;;9.00;9.00;;;;;25.99;30.89;100468.20;244851;1180;72999;-65
2024/03/28 21:27:50;;;;;;;;;11.00;9.00;;;;;25.98;31.09;100476.74;244035;1177;72729;-65
2024/03/28 21:33:25;;;;;;;;;11.00;10.00;;;;;25.98;30.87;100477.34;244514;1177;73856;-65
2024/03/28 21:39:00;;;;;;;;;11.00;9.00;;;;;25.96;31.01;100477.42;244834;1177;73462;-65
2024/03/28 21:44:13;;;;;;;;;11.00;9.00;;;;;25.95;30.98;100475.42;244265;1180;74506;-65
2024/03/28 21:55:29;;;;;;;;;9.00;9.00;;;;;25.94;31.13;100468.17;244388;1177;72969;-66
2024/03/28 22:01:11;;;;;;;;;8.00;8.00;;;;;25.92;31.09;100458.24;244181;1177;58403;-65
2024/03/28 22:06:15;;;;;;;;;10.67;10.67;;;;;25.91;30.97;100456.85;244012;1180;73235;-66
2024/03/28 22:11:18;;;;;;;;;9.33;9.33;;;;;25.91;31.01;100448.73;244340;1178;58383;-65
2024/03/28 22:16:33;;;;;;;;;13.00;13.00;;;;;25.90;31.13;100454.31;244720;1177;58649;-65
2024/03/28 22:22:08;;;;;;;;;10.00;10.00;;;;;25.90;31.03;100456.05;244550;1180;72895;-65
2024/03/28 22:27:22;;;;;;;;;7.00;7.00;;;;;25.89;30.95;100454.17;244253;1180;73668;-66
2024/03/28 22:32:52;;;;;;;;;10.00;10.00;;;;;25.88;31.22;100458.16;244551;1180;74201;-65
2024/03/28 22:38:27;;;;;;;;;9.00;9.00;;;;;25.88;31.11;100459.52;244920;1180;73180;-65
2024/03/28 22:44:03;;;;;;;;;11.50;11.00;;;;;25.87;31.18;100461.88;244452;1180;73224;-65
2024/03/28 22:49:22;;;;;;;;;9.00;9.00;;;;;25.86;31.14;100476.69;244733;1180;74679;-65
2024/03/28 22:54:57;;;;;;;;;10.50;10.00;;;;;25.85;31.12;100486.33;244870;1180;72847;-65
2024/03/28 23:00:10;;;;;;;;;10.33;8.33;;;;;25.83;31.19;100490.91;244548;1177;72901;-66
2024/03/28 23:05:45;;;;;;;;;8.67;8.67;;;;;25.83;31.17;100499.77;244615;1180;72815;-66
2024/03/28 23:10:55;;;;;;;;;10.00;9.00;;;;;25.83;31.32;100503.12;244183;1177;74003;-66
2024/03/28 23:16:30;;;;;;;;;9.50;9.50;;;;;25.82;31.41;100510.00;244602;1177;73246;-65
2024/03/28 23:21:49;;;;;;;;;13.33;11.00;;;;;25.81;31.29;100514.05;244349;1180;73628;-65
2024/03/28 23:27:23;;;;;;;;;10.33;9.67;;;;;25.81;31.31;100523.96;244589;1180;73681;-66
2024/03/28 23:32:38;;;;;;;;;10.00;9.00;;;;;25.79;31.42;100523.77;244514;1180;72849;-65
2024/03/28 23:37:43;;;;;;;;;11.33;11.00;;;;;25.78;31.22;100516.95;244799;1177;71635;-65
2024/03/28 23:43:25;;;;;;;;;8.67;8.00;;;;;25.78;31.30;100508.84;244950;1180;75460;-65
2024/03/28 23:48:50;;;;;;;;;8.33;8.33;;;;;25.78;31.20;100506.33;244599;1180;73384;-65
2024/03/28 23:54:25;;;;;;;;;9.00;9.00;;;;;25.77;31.31;100513.04;244297;1180;72898;-66
2024/03/28 23:59:46;;;;;;;;;8.00;8.00;;;;;25.76;31.23;100513.46;244373;1180;73712;-65
